sensor_id;sensor_type;location;lat;lon;timestamp;P1;durP1;ratioP1;P2;durP2;ratioP2
32333;SDS011;18810;53.040;8.850;2022-12-18T00:01:42;89.75;;;40.47;;
32333;SDS011;18810;53.040;8.850;2022-12-18T00:04:13;85.65;;;41.28;;
32333;SDS011;18810;53.040;8.850;2022-12-18T00:06:45;87.93;;;42.95;;
32333;SDS011;18810;53.040;8.850;2022-12-18T00:09:11;89.93;;;42.50;;
32333;SDS011;18810;53.040;8.850;2022-12-18T00:11:37;89.47;;;43.17;;
32333;SDS011;18810;53.040;8.850;2022-12-18T00:14:02;85.95;;;41.20;;
32333;SDS011;18810;53.040;8.850;2022-12-18T00:16:28;88.90;;;43.58;;
32333;SDS011;18810;53.040;8.850;2022-12-18T00:19:00;83.80;;;40.30;;
32333;SDS011;18810;53.040;8.850;2022-12-18T00:21:26;89.10;;;41.10;;
32333;SDS011;18810;53.040;8.850;2022-12-18T00:23:54;88.60;;;41.83;;
32333;SDS011;18810;53.040;8.850;2022-12-18T00:26:21;81.78;;;39.83;;
32333;SDS011;18810;53.040;8.850;2022-12-18T00:28:52;82.05;;;38.15;;
32333;SDS011;18810;53.040;8.850;2022-12-18T00:31:19;86.32;;;41.67;;
32333;SDS011;18810;53.040;8.850;2022-12-18T00:33:46;84.45;;;41.17;;
32333;SDS011;18810;53.040;8.850;2022-12-18T00:36:13;107.07;;;53.92;;
32333;SDS011;18810;53.040;8.850;2022-12-18T00:38:42;116.20;;;59.33;;
32333;SDS011;18810;53.040;8.850;2022-12-18T00:41:09;96.10;;;46.50;;
32333;SDS011;18810;53.040;8.850;2022-12-18T00:43:37;91.35;;;43.75;;
32333;SDS011;18810;53.040;8.850;2022-12-18T00:46:03;89.18;;;40.88;;
32333;SDS011;18810;53.040;8.850;2022-12-18T00:48:29;80.40;;;38.60;;
32333;SDS011;18810;53.040;8.850;2022-12-18T00:50:55;86.60;;;40.63;;
32333;SDS011;18810;53.040;8.850;2022-12-18T00:53:20;79.63;;;39.60;;
32333;SDS011;18810;53.040;8.850;2022-12-18T00:55:46;74.25;;;38.63;;
32333;SDS011;18810;53.040;8.850;2022-12-18T00:58:13;77.38;;;39.92;;
32333;SDS011;18810;53.040;8.850;2022-12-18T01:00:40;81.55;;;38.30;;
32333;SDS011;18810;53.040;8.850;2022-12-18T01:03:06;78.28;;;39.38;;
32333;SDS011;18810;53.040;8.850;2022-12-18T01:05:32;79.53;;;38.13;;
32333;SDS011;18810;53.040;8.850;2022-12-18T01:07:58;79.07;;;39.50;;
32333;SDS011;18810;53.040;8.850;2022-12-18T01:10:25;76.22;;;37.95;;
32333;SDS011;18810;53.040;8.850;2022-12-18T01:12:51;69.50;;;36.83;;
32333;SDS011;18810;53.040;8.850;2022-12-18T01:15:17;77.28;;;38.85;;
32333;SDS011;18810;53.040;8.850;2022-12-18T01:17:43;89.70;;;40.45;;
32333;SDS011;18810;53.040;8.850;2022-12-18T01:20:11;82.20;;;39.70;;
32333;SDS011;18810;53.040;8.850;2022-12-18T01:22:37;74.00;;;39.08;;
32333;SDS011;18810;53.040;8.850;2022-12-18T01:25:03;74.18;;;35.67;;
32333;SDS011;18810;53.040;8.850;2022-12-18T01:27:29;70.38;;;36.20;;
32333;SDS011;18810;53.040;8.850;2022-12-18T01:29:55;72.90;;;37.95;;
32333;SDS011;18810;53.040;8.850;2022-12-18T01:32:21;77.95;;;35.00;;
32333;SDS011;18810;53.040;8.850;2022-12-18T01:34:47;72.90;;;36.63;;
32333;SDS011;18810;53.040;8.850;2022-12-18T01:37:13;78.38;;;36.58;;
32333;SDS011;18810;53.040;8.850;2022-12-18T01:39:38;77.88;;;36.53;;
32333;SDS011;18810;53.040;8.850;2022-12-18T01:42:09;72.35;;;35.40;;
32333;SDS011;18810;53.040;8.850;2022-12-18T01:49:50;75.47;;;35.92;;
32333;SDS011;18810;53.040;8.850;2022-12-18T01:52:16;70.63;;;34.78;;
32333;SDS011;18810;53.040;8.850;2022-12-18T01:54:49;71.45;;;34.28;;
32333;SDS011;18810;53.040;8.850;2022-12-18T01:57:22;79.18;;;34.45;;
32333;SDS011;18810;53.040;8.850;2022-12-18T01:59:50;66.35;;;33.60;;
32333;SDS011;18810;53.040;8.850;2022-12-18T02:02:19;67.38;;;32.55;;
32333;SDS011;18810;53.040;8.850;2022-12-18T02:04:46;70.00;;;33.33;;
32333;SDS011;18810;53.040;8.850;2022-12-18T02:10:12;76.30;;;35.33;;
32333;SDS011;18810;53.040;8.850;2022-12-18T02:15:38;64.70;;;32.33;;
32333;SDS011;18810;53.040;8.850;2022-12-18T02:18:10;68.70;;;33.03;;
32333;SDS011;18810;53.040;8.850;2022-12-18T02:20:48;64.95;;;32.42;;
32333;SDS011;18810;53.040;8.850;2022-12-18T02:28:34;62.63;;;30.35;;
32333;SDS011;18810;53.040;8.850;2022-12-18T02:31:03;63.83;;;31.42;;
32333;SDS011;18810;53.040;8.850;2022-12-18T02:33:32;64.10;;;30.30;;
32333;SDS011;18810;53.040;8.850;2022-12-18T02:36:00;65.88;;;30.75;;
32333;SDS011;18810;53.040;8.850;2022-12-18T02:38:28;60.83;;;30.30;;
32333;SDS011;18810;53.040;8.850;2022-12-18T02:40:55;60.45;;;30.27;;
32333;SDS011;18810;53.040;8.850;2022-12-18T02:43:22;60.92;;;29.67;;
32333;SDS011;18810;53.040;8.850;2022-12-18T02:45:55;62.03;;;29.83;;
32333;SDS011;18810;53.040;8.850;2022-12-18T02:48:24;59.05;;;28.83;;
32333;SDS011;18810;53.040;8.850;2022-12-18T02:53:36;54.38;;;28.15;;
32333;SDS011;18810;53.040;8.850;2022-12-18T02:56:20;53.88;;;27.23;;
32333;SDS011;18810;53.040;8.850;2022-12-18T02:59:04;57.30;;;28.50;;
32333;SDS011;18810;53.040;8.850;2022-12-18T03:05:24;52.50;;;27.77;;
32333;SDS011;18810;53.040;8.850;2022-12-18T03:07:27;54.45;;;26.33;;
32333;SDS011;18810;53.040;8.850;2022-12-18T03:10:00;58.80;;;26.75;;
32333;SDS011;18810;53.040;8.850;2022-12-18T03:12:30;59.53;;;28.48;;
32333;SDS011;18810;53.040;8.850;2022-12-18T03:17:35;59.30;;;27.80;;
32333;SDS011;18810;53.040;8.850;2022-12-18T03:20:05;57.55;;;27.00;;
32333;SDS011;18810;53.040;8.850;2022-12-18T03:22:39;57.72;;;28.35;;
32333;SDS011;18810;53.040;8.850;2022-12-18T03:25:09;52.10;;;25.42;;
32333;SDS011;18810;53.040;8.850;2022-12-18T03:27:40;55.97;;;26.45;;
32333;SDS011;18810;53.040;8.850;2022-12-18T03:30:11;55.85;;;26.88;;
32333;SDS011;18810;53.040;8.850;2022-12-18T03:32:48;51.50;;;25.38;;
32333;SDS011;18810;53.040;8.850;2022-12-18T03:35:25;54.97;;;26.77;;
32333;SDS011;18810;53.040;8.850;2022-12-18T03:37:54;54.85;;;26.23;;
32333;SDS011;18810;53.040;8.850;2022-12-18T03:40:21;51.03;;;26.67;;
32333;SDS011;18810;53.040;8.850;2022-12-18T03:42:52;50.72;;;25.02;;
32333;SDS011;18810;53.040;8.850;2022-12-18T03:48:28;56.95;;;26.67;;
32333;SDS011;18810;53.040;8.850;2022-12-18T03:51:07;49.15;;;25.60;;
32333;SDS011;18810;53.040;8.850;2022-12-18T03:53:44;51.58;;;24.75;;
32333;SDS011;18810;53.040;8.850;2022-12-18T03:56:19;48.28;;;23.08;;
32333;SDS011;18810;53.040;8.850;2022-12-18T03:58:47;53.08;;;24.27;;
32333;SDS011;18810;53.040;8.850;2022-12-18T04:01:16;45.95;;;23.42;;
32333;SDS011;18810;53.040;8.850;2022-12-18T04:03:44;47.08;;;22.23;;
32333;SDS011;18810;53.040;8.850;2022-12-18T04:06:13;46.83;;;23.08;;
32333;SDS011;18810;53.040;8.850;2022-12-18T04:08:39;48.65;;;23.42;;
32333;SDS011;18810;53.040;8.850;2022-12-18T04:11:06;44.10;;;23.10;;
32333;SDS011;18810;53.040;8.850;2022-12-18T04:13:33;48.60;;;22.98;;
32333;SDS011;18810;53.040;8.850;2022-12-18T04:16:00;43.65;;;22.90;;
32333;SDS011;18810;53.040;8.850;2022-12-18T04:18:27;46.47;;;22.55;;
32333;SDS011;18810;53.040;8.850;2022-12-18T04:20:52;46.28;;;23.85;;
32333;SDS011;18810;53.040;8.850;2022-12-18T04:23:18;43.75;;;19.92;;
32333;SDS011;18810;53.040;8.850;2022-12-18T04:25:44;43.67;;;21.80;;
32333;SDS011;18810;53.040;8.850;2022-12-18T04:28:10;40.97;;;21.33;;
32333;SDS011;18810;53.040;8.850;2022-12-18T04:30:35;45.10;;;21.73;;
32333;SDS011;18810;53.040;8.850;2022-12-18T04:33:01;45.22;;;22.15;;
32333;SDS011;18810;53.040;8.850;2022-12-18T04:35:27;39.42;;;20.77;;
32333;SDS011;18810;53.040;8.850;2022-12-18T04:37:53;43.63;;;20.63;;
32333;SDS011;18810;53.040;8.850;2022-12-18T04:40:18;40.80;;;20.40;;
32333;SDS011;18810;53.040;8.850;2022-12-18T04:42:44;37.42;;;20.63;;
32333;SDS011;18810;53.040;8.850;2022-12-18T04:45:10;41.80;;;21.75;;
32333;SDS011;18810;53.040;8.850;2022-12-18T04:47:35;43.72;;;20.80;;
32333;SDS011;18810;53.040;8.850;2022-12-18T04:50:01;40.55;;;20.77;;
32333;SDS011;18810;53.040;8.850;2022-12-18T04:52:27;39.97;;;20.00;;
32333;SDS011;18810;53.040;8.850;2022-12-18T04:54:53;45.72;;;21.48;;
32333;SDS011;18810;53.040;8.850;2022-12-18T04:57:18;41.95;;;20.90;;
32333;SDS011;18810;53.040;8.850;2022-12-18T04:59:44;38.95;;;20.08;;
32333;SDS011;18810;53.040;8.850;2022-12-18T05:02:10;41.88;;;21.55;;
32333;SDS011;18810;53.040;8.850;2022-12-18T05:04:36;44.35;;;19.70;;
32333;SDS011;18810;53.040;8.850;2022-12-18T05:07:01;44.13;;;20.95;;
32333;SDS011;18810;53.040;8.850;2022-12-18T05:09:27;38.72;;;20.33;;
32333;SDS011;18810;53.040;8.850;2022-12-18T05:11:56;45.40;;;20.98;;
32333;SDS011;18810;53.040;8.850;2022-12-18T05:14:25;46.47;;;21.92;;
32333;SDS011;18810;53.040;8.850;2022-12-18T05:16:52;44.03;;;21.33;;
32333;SDS011;18810;53.040;8.850;2022-12-18T05:19:18;47.15;;;21.08;;
32333;SDS011;18810;53.040;8.850;2022-12-18T05:21:44;41.20;;;19.75;;
32333;SDS011;18810;53.040;8.850;2022-12-18T05:24:09;43.08;;;21.33;;
32333;SDS011;18810;53.040;8.850;2022-12-18T05:26:35;44.53;;;20.33;;
32333;SDS011;18810;53.040;8.850;2022-12-18T05:29:01;40.63;;;20.70;;
32333;SDS011;18810;53.040;8.850;2022-12-18T05:31:26;43.22;;;20.83;;
32333;SDS011;18810;53.040;8.850;2022-12-18T05:33:52;40.22;;;19.85;;
32333;SDS011;18810;53.040;8.850;2022-12-18T05:36:19;45.83;;;21.27;;
32333;SDS011;18810;53.040;8.850;2022-12-18T05:38:44;38.53;;;19.83;;
32333;SDS011;18810;53.040;8.850;2022-12-18T05:41:10;37.75;;;19.35;;
32333;SDS011;18810;53.040;8.850;2022-12-18T05:43:36;43.25;;;20.00;;
32333;SDS011;18810;53.040;8.850;2022-12-18T05:46:04;41.05;;;18.88;;
32333;SDS011;18810;53.040;8.850;2022-12-18T05:48:31;39.97;;;20.30;;
32333;SDS011;18810;53.040;8.850;2022-12-18T05:51:02;41.22;;;20.45;;
32333;SDS011;18810;53.040;8.850;2022-12-18T05:53:32;45.63;;;20.55;;
32333;SDS011;18810;53.040;8.850;2022-12-18T05:55:59;37.85;;;20.42;;
32333;SDS011;18810;53.040;8.850;2022-12-18T05:58:26;41.28;;;19.10;;
32333;SDS011;18810;53.040;8.850;2022-12-18T06:00:52;46.85;;;21.23;;
32333;SDS011;18810;53.040;8.850;2022-12-18T06:03:18;40.97;;;19.58;;
32333;SDS011;18810;53.040;8.850;2022-12-18T06:05:44;40.28;;;18.70;;
32333;SDS011;18810;53.040;8.850;2022-12-18T06:08:10;36.13;;;18.83;;
32333;SDS011;18810;53.040;8.850;2022-12-18T06:10:37;42.08;;;20.00;;
32333;SDS011;18810;53.040;8.850;2022-12-18T06:13:05;39.03;;;19.58;;
32333;SDS011;18810;53.040;8.850;2022-12-18T06:15:31;37.58;;;19.02;;
32333;SDS011;18810;53.040;8.850;2022-12-18T06:17:57;38.65;;;19.85;;
32333;SDS011;18810;53.040;8.850;2022-12-18T06:20:25;39.97;;;19.85;;
32333;SDS011;18810;53.040;8.850;2022-12-18T06:22:50;39.17;;;19.55;;
32333;SDS011;18810;53.040;8.850;2022-12-18T06:25:16;40.45;;;19.73;;
32333;SDS011;18810;53.040;8.850;2022-12-18T06:27:42;36.55;;;19.80;;
32333;SDS011;18810;53.040;8.850;2022-12-18T06:30:08;40.88;;;20.17;;
32333;SDS011;18810;53.040;8.850;2022-12-18T06:32:34;35.88;;;18.75;;
32333;SDS011;18810;53.040;8.850;2022-12-18T06:35:00;45.33;;;19.55;;
32333;SDS011;18810;53.040;8.850;2022-12-18T06:37:25;39.65;;;20.15;;
32333;SDS011;18810;53.040;8.850;2022-12-18T06:39:54;36.30;;;19.85;;
32333;SDS011;18810;53.040;8.850;2022-12-18T06:42:21;41.25;;;17.95;;
32333;SDS011;18810;53.040;8.850;2022-12-18T06:44:47;44.35;;;19.42;;
32333;SDS011;18810;53.040;8.850;2022-12-18T06:47:13;36.10;;;19.42;;
32333;SDS011;18810;53.040;8.850;2022-12-18T06:49:38;33.50;;;18.38;;
32333;SDS011;18810;53.040;8.850;2022-12-18T06:52:04;38.30;;;19.50;;
32333;SDS011;18810;53.040;8.850;2022-12-18T06:54:30;37.80;;;19.48;;
32333;SDS011;18810;53.040;8.850;2022-12-18T06:56:55;37.67;;;19.15;;
32333;SDS011;18810;53.040;8.850;2022-12-18T06:59:21;44.97;;;18.35;;
32333;SDS011;18810;53.040;8.850;2022-12-18T07:01:47;40.05;;;19.00;;
32333;SDS011;18810;53.040;8.850;2022-12-18T07:04:12;35.80;;;19.58;;
32333;SDS011;18810;53.040;8.850;2022-12-18T07:06:38;40.83;;;20.05;;
32333;SDS011;18810;53.040;8.850;2022-12-18T07:09:04;40.10;;;19.88;;
32333;SDS011;18810;53.040;8.850;2022-12-18T07:11:32;40.83;;;20.00;;
32333;SDS011;18810;53.040;8.850;2022-12-18T07:13:58;44.65;;;21.17;;
32333;SDS011;18810;53.040;8.850;2022-12-18T07:16:24;38.95;;;20.58;;
32333;SDS011;18810;53.040;8.850;2022-12-18T07:18:51;38.65;;;19.75;;
32333;SDS011;18810;53.040;8.850;2022-12-18T07:21:18;41.65;;;18.92;;
32333;SDS011;18810;53.040;8.850;2022-12-18T07:23:45;42.58;;;20.48;;
32333;SDS011;18810;53.040;8.850;2022-12-18T07:26:13;35.78;;;18.27;;
32333;SDS011;18810;53.040;8.850;2022-12-18T07:28:40;36.22;;;18.60;;
32333;SDS011;18810;53.040;8.850;2022-12-18T07:31:11;40.33;;;18.48;;
32333;SDS011;18810;53.040;8.850;2022-12-18T07:33:38;40.75;;;20.63;;
32333;SDS011;18810;53.040;8.850;2022-12-18T07:36:05;42.08;;;21.50;;
32333;SDS011;18810;53.040;8.850;2022-12-18T07:38:32;42.60;;;21.63;;
32333;SDS011;18810;53.040;8.850;2022-12-18T07:43:31;39.78;;;19.85;;
32333;SDS011;18810;53.040;8.850;2022-12-18T07:45:57;44.58;;;20.77;;
32333;SDS011;18810;53.040;8.850;2022-12-18T07:48:23;42.72;;;22.30;;
32333;SDS011;18810;53.040;8.850;2022-12-18T07:50:49;41.17;;;21.45;;
32333;SDS011;18810;53.040;8.850;2022-12-18T07:53:14;51.28;;;21.85;;
32333;SDS011;18810;53.040;8.850;2022-12-18T07:55:40;42.25;;;21.27;;
32333;SDS011;18810;53.040;8.850;2022-12-18T07:58:07;47.63;;;20.80;;
32333;SDS011;18810;53.040;8.850;2022-12-18T08:00:33;39.92;;;20.25;;
32333;SDS011;18810;53.040;8.850;2022-12-18T08:03:00;39.75;;;20.52;;
32333;SDS011;18810;53.040;8.850;2022-12-18T08:05:26;53.92;;;24.48;;
32333;SDS011;18810;53.040;8.850;2022-12-18T08:07:52;60.63;;;30.80;;
32333;SDS011;18810;53.040;8.850;2022-12-18T08:10:18;73.68;;;35.20;;
32333;SDS011;18810;53.040;8.850;2022-12-18T08:12:45;45.50;;;23.42;;
32333;SDS011;18810;53.040;8.850;2022-12-18T08:15:10;43.72;;;21.77;;
32333;SDS011;18810;53.040;8.850;2022-12-18T08:17:36;41.22;;;22.63;;
32333;SDS011;18810;53.040;8.850;2022-12-18T08:20:02;42.08;;;20.83;;
32333;SDS011;18810;53.040;8.850;2022-12-18T08:22:28;38.30;;;20.95;;
32333;SDS011;18810;53.040;8.850;2022-12-18T08:24:53;41.33;;;22.77;;
32333;SDS011;18810;53.040;8.850;2022-12-18T08:27:19;47.95;;;23.30;;
32333;SDS011;18810;53.040;8.850;2022-12-18T08:29:45;44.67;;;22.30;;
32333;SDS011;18810;53.040;8.850;2022-12-18T08:32:11;44.88;;;22.75;;
32333;SDS011;18810;53.040;8.850;2022-12-18T08:34:36;40.17;;;22.00;;
32333;SDS011;18810;53.040;8.850;2022-12-18T08:37:03;40.75;;;21.38;;
32333;SDS011;18810;53.040;8.850;2022-12-18T08:39:28;41.47;;;21.80;;
32333;SDS011;18810;53.040;8.850;2022-12-18T08:41:54;42.03;;;21.42;;
32333;SDS011;18810;53.040;8.850;2022-12-18T08:44:38;44.72;;;23.15;;
32333;SDS011;18810;53.040;8.850;2022-12-18T08:47:05;42.67;;;20.98;;
32333;SDS011;18810;53.040;8.850;2022-12-18T08:49:31;41.88;;;21.45;;
32333;SDS011;18810;53.040;8.850;2022-12-18T08:51:57;36.83;;;19.10;;
32333;SDS011;18810;53.040;8.850;2022-12-18T08:54:23;33.42;;;20.08;;
32333;SDS011;18810;53.040;8.850;2022-12-18T08:56:50;31.90;;;19.15;;
32333;SDS011;18810;53.040;8.850;2022-12-18T08:59:16;36.13;;;18.40;;
32333;SDS011;18810;53.040;8.850;2022-12-18T09:01:43;33.38;;;17.50;;
32333;SDS011;18810;53.040;8.850;2022-12-18T09:04:09;39.08;;;20.63;;
32333;SDS011;18810;53.040;8.850;2022-12-18T09:06:35;29.85;;;17.75;;
32333;SDS011;18810;53.040;8.850;2022-12-18T09:09:00;32.85;;;16.92;;
32333;SDS011;18810;53.040;8.850;2022-12-18T09:11:27;37.42;;;18.50;;
32333;SDS011;18810;53.040;8.850;2022-12-18T09:13:54;32.42;;;18.45;;
32333;SDS011;18810;53.040;8.850;2022-12-18T09:16:21;35.72;;;18.13;;
32333;SDS011;18810;53.040;8.850;2022-12-18T09:18:48;30.35;;;18.08;;
32333;SDS011;18810;53.040;8.850;2022-12-18T09:21:15;34.58;;;17.98;;
32333;SDS011;18810;53.040;8.850;2022-12-18T09:23:42;35.85;;;18.50;;
32333;SDS011;18810;53.040;8.850;2022-12-18T09:26:09;34.08;;;17.48;;
32333;SDS011;18810;53.040;8.850;2022-12-18T09:28:35;30.20;;;17.67;;
32333;SDS011;18810;53.040;8.850;2022-12-18T09:31:05;35.50;;;18.60;;
32333;SDS011;18810;53.040;8.850;2022-12-18T09:33:33;34.58;;;17.55;;
32333;SDS011;18810;53.040;8.850;2022-12-18T09:36:03;34.72;;;19.00;;
32333;SDS011;18810;53.040;8.850;2022-12-18T09:38:30;34.60;;;18.52;;
32333;SDS011;18810;53.040;8.850;2022-12-18T09:41:22;31.75;;;18.35;;
32333;SDS011;18810;53.040;8.850;2022-12-18T09:44:01;33.38;;;19.17;;
32333;SDS011;18810;53.040;8.850;2022-12-18T09:46:36;35.05;;;19.35;;
32333;SDS011;18810;53.040;8.850;2022-12-18T09:49:11;32.60;;;18.63;;
32333;SDS011;18810;53.040;8.850;2022-12-18T09:51:43;34.22;;;17.38;;
32333;SDS011;18810;53.040;8.850;2022-12-18T09:54:26;33.42;;;17.75;;
32333;SDS011;18810;53.040;8.850;2022-12-18T09:57:03;30.67;;;17.67;;
32333;SDS011;18810;53.040;8.850;2022-12-18T09:59:30;42.05;;;20.58;;
32333;SDS011;18810;53.040;8.850;2022-12-18T10:01:57;33.97;;;19.52;;
32333;SDS011;18810;53.040;8.850;2022-12-18T10:04:23;37.67;;;19.20;;
32333;SDS011;18810;53.040;8.850;2022-12-18T10:06:55;37.88;;;18.35;;
32333;SDS011;18810;53.040;8.850;2022-12-18T10:22:33;33.17;;;17.77;;
32333;SDS011;18810;53.040;8.850;2022-12-18T10:28:17;25.63;;;16.23;;
32333;SDS011;18810;53.040;8.850;2022-12-18T10:30:44;30.75;;;17.10;;
32333;SDS011;18810;53.040;8.850;2022-12-18T10:33:17;28.63;;;17.33;;
32333;SDS011;18810;53.040;8.850;2022-12-18T10:35:44;32.90;;;16.38;;
32333;SDS011;18810;53.040;8.850;2022-12-18T10:40:57;25.13;;;15.85;;
32333;SDS011;18810;53.040;8.850;2022-12-18T10:43:35;27.95;;;16.05;;
32333;SDS011;18810;53.040;8.850;2022-12-18T10:46:04;28.60;;;15.88;;
32333;SDS011;18810;53.040;8.850;2022-12-18T10:48:40;30.90;;;18.08;;
32333;SDS011;18810;53.040;8.850;2022-12-18T10:51:18;32.28;;;18.23;;
32333;SDS011;18810;53.040;8.850;2022-12-18T10:56:33;29.95;;;17.75;;
32333;SDS011;18810;53.040;8.850;2022-12-18T10:59:02;28.88;;;16.05;;
32333;SDS011;18810;53.040;8.850;2022-12-18T11:04:49;32.88;;;18.10;;
32333;SDS011;18810;53.040;8.850;2022-12-18T11:07:16;31.08;;;17.10;;
32333;SDS011;18810;53.040;8.850;2022-12-18T11:09:42;29.23;;;18.38;;
32333;SDS011;18810;53.040;8.850;2022-12-18T11:12:18;27.80;;;16.38;;
32333;SDS011;18810;53.040;8.850;2022-12-18T11:14:51;29.65;;;17.70;;
32333;SDS011;18810;53.040;8.850;2022-12-18T11:19:45;27.08;;;17.15;;
32333;SDS011;18810;53.040;8.850;2022-12-18T11:22:25;32.50;;;17.88;;
32333;SDS011;18810;53.040;8.850;2022-12-18T11:24:57;31.23;;;15.95;;
32333;SDS011;18810;53.040;8.850;2022-12-18T11:27:28;27.42;;;16.40;;
32333;SDS011;18810;53.040;8.850;2022-12-18T11:30:07;26.27;;;17.02;;
32333;SDS011;18810;53.040;8.850;2022-12-18T11:32:46;29.75;;;18.58;;
32333;SDS011;18810;53.040;8.850;2022-12-18T11:35:17;29.45;;;17.02;;
32333;SDS011;18810;53.040;8.850;2022-12-18T11:38:00;27.42;;;16.83;;
32333;SDS011;18810;53.040;8.850;2022-12-18T11:40:33;24.85;;;16.38;;
32333;SDS011;18810;53.040;8.850;2022-12-18T11:43:18;27.67;;;15.77;;
32333;SDS011;18810;53.040;8.850;2022-12-18T11:45:59;24.58;;;15.20;;
32333;SDS011;18810;53.040;8.850;2022-12-18T11:48:44;25.55;;;15.40;;
32333;SDS011;18810;53.040;8.850;2022-12-18T11:51:22;24.50;;;15.02;;
32333;SDS011;18810;53.040;8.850;2022-12-18T11:53:55;23.52;;;14.73;;
32333;SDS011;18810;53.040;8.850;2022-12-18T11:56:31;22.65;;;14.35;;
32333;SDS011;18810;53.040;8.850;2022-12-18T12:07:19;23.00;;;14.45;;
32333;SDS011;18810;53.040;8.850;2022-12-18T12:10:00;27.25;;;14.05;;
32333;SDS011;18810;53.040;8.850;2022-12-18T12:12:55;25.27;;;15.20;;
32333;SDS011;18810;53.040;8.850;2022-12-18T12:15:50;26.23;;;14.85;;
32333;SDS011;18810;53.040;8.850;2022-12-18T12:23:41;21.98;;;15.07;;
32333;SDS011;18810;53.040;8.850;2022-12-18T12:37:27;24.85;;;15.35;;
32333;SDS011;18810;53.040;8.850;2022-12-18T12:40:04;24.88;;;15.27;;
32333;SDS011;18810;53.040;8.850;2022-12-18T12:42:40;24.67;;;14.13;;
32333;SDS011;18810;53.040;8.850;2022-12-18T12:46:14;25.42;;;15.32;;
32333;SDS011;18810;53.040;8.850;2022-12-18T12:50:58;23.48;;;15.32;;
32333;SDS011;18810;53.040;8.850;2022-12-18T12:53:33;23.73;;;14.75;;
32333;SDS011;18810;53.040;8.850;2022-12-18T12:56:02;28.85;;;16.10;;
32333;SDS011;18810;53.040;8.850;2022-12-18T12:58:31;26.63;;;15.45;;
32333;SDS011;18810;53.040;8.850;2022-12-18T13:01:22;24.20;;;15.00;;
32333;SDS011;18810;53.040;8.850;2022-12-18T13:06:33;27.70;;;15.68;;
32333;SDS011;18810;53.040;8.850;2022-12-18T13:09:20;26.15;;;15.15;;
32333;SDS011;18810;53.040;8.850;2022-12-18T13:11:46;33.72;;;16.35;;
32333;SDS011;18810;53.040;8.850;2022-12-18T13:22:35;24.80;;;16.58;;
32333;SDS011;18810;53.040;8.850;2022-12-18T13:28:08;25.80;;;15.73;;
32333;SDS011;18810;53.040;8.850;2022-12-18T13:48:50;29.67;;;17.70;;
32333;SDS011;18810;53.040;8.850;2022-12-18T13:51:25;26.85;;;17.25;;
32333;SDS011;18810;53.040;8.850;2022-12-18T13:56:45;27.70;;;15.82;;
32333;SDS011;18810;53.040;8.850;2022-12-18T13:59:45;28.33;;;16.30;;
32333;SDS011;18810;53.040;8.850;2022-12-18T14:02:15;29.95;;;16.48;;
32333;SDS011;18810;53.040;8.850;2022-12-18T14:04:46;27.40;;;17.13;;
32333;SDS011;18810;53.040;8.850;2022-12-18T14:07:14;26.58;;;16.42;;
32333;SDS011;18810;53.040;8.850;2022-12-18T14:09:44;28.88;;;16.85;;
32333;SDS011;18810;53.040;8.850;2022-12-18T14:12:18;25.40;;;15.55;;
32333;SDS011;18810;53.040;8.850;2022-12-18T14:17:55;26.88;;;15.75;;
32333;SDS011;18810;53.040;8.850;2022-12-18T14:20:41;30.00;;;16.33;;
32333;SDS011;18810;53.040;8.850;2022-12-18T14:28:54;26.95;;;15.77;;
32333;SDS011;18810;53.040;8.850;2022-12-18T14:31:22;29.50;;;16.25;;
32333;SDS011;18810;53.040;8.850;2022-12-18T14:33:53;31.67;;;17.40;;
32333;SDS011;18810;53.040;8.850;2022-12-18T14:36:23;25.17;;;16.05;;
32333;SDS011;18810;53.040;8.850;2022-12-18T14:38:53;28.13;;;16.77;;
32333;SDS011;18810;53.040;8.850;2022-12-18T14:41:21;29.88;;;16.98;;
32333;SDS011;18810;53.040;8.850;2022-12-18T14:43:52;30.02;;;16.92;;
32333;SDS011;18810;53.040;8.850;2022-12-18T14:46:26;25.92;;;14.48;;
32333;SDS011;18810;53.040;8.850;2022-12-18T14:48:53;28.83;;;15.32;;
32333;SDS011;18810;53.040;8.850;2022-12-18T14:51:23;27.52;;;15.45;;
32333;SDS011;18810;53.040;8.850;2022-12-18T14:53:59;30.15;;;15.93;;
32333;SDS011;18810;53.040;8.850;2022-12-18T14:56:28;29.67;;;16.52;;
32333;SDS011;18810;53.040;8.850;2022-12-18T14:59:00;27.48;;;15.05;;
32333;SDS011;18810;53.040;8.850;2022-12-18T15:01:29;29.25;;;17.10;;
32333;SDS011;18810;53.040;8.850;2022-12-18T15:04:01;26.40;;;15.13;;
32333;SDS011;18810;53.040;8.850;2022-12-18T15:06:29;29.27;;;16.95;;
32333;SDS011;18810;53.040;8.850;2022-12-18T15:08:58;26.27;;;14.73;;
32333;SDS011;18810;53.040;8.850;2022-12-18T15:11:29;27.13;;;14.68;;
32333;SDS011;18810;53.040;8.850;2022-12-18T15:13:59;31.80;;;16.50;;
32333;SDS011;18810;53.040;8.850;2022-12-18T15:16:49;27.83;;;15.65;;
32333;SDS011;18810;53.040;8.850;2022-12-18T15:19:20;30.50;;;15.60;;
32333;SDS011;18810;53.040;8.850;2022-12-18T15:21:47;28.25;;;15.68;;
32333;SDS011;18810;53.040;8.850;2022-12-18T15:24:17;29.13;;;15.30;;
32333;SDS011;18810;53.040;8.850;2022-12-18T15:26:45;30.08;;;15.52;;
32333;SDS011;18810;53.040;8.850;2022-12-18T15:29:19;29.75;;;15.55;;
32333;SDS011;18810;53.040;8.850;2022-12-18T15:32:10;30.23;;;16.42;;
32333;SDS011;18810;53.040;8.850;2022-12-18T15:34:44;29.85;;;16.63;;
32333;SDS011;18810;53.040;8.850;2022-12-18T15:37:10;29.55;;;16.85;;
32333;SDS011;18810;53.040;8.850;2022-12-18T15:39:35;26.95;;;15.23;;
32333;SDS011;18810;53.040;8.850;2022-12-18T15:42:01;29.80;;;17.35;;
32333;SDS011;18810;53.040;8.850;2022-12-18T15:44:45;29.02;;;16.10;;
32333;SDS011;18810;53.040;8.850;2022-12-18T15:47:12;31.08;;;17.95;;
32333;SDS011;18810;53.040;8.850;2022-12-18T15:49:38;27.17;;;15.80;;
32333;SDS011;18810;53.040;8.850;2022-12-18T15:52:04;27.10;;;14.82;;
32333;SDS011;18810;53.040;8.850;2022-12-18T15:54:30;30.27;;;14.77;;
32333;SDS011;18810;53.040;8.850;2022-12-18T15:57:15;25.60;;;14.93;;
32333;SDS011;18810;53.040;8.850;2022-12-18T15:59:53;27.98;;;15.63;;
32333;SDS011;18810;53.040;8.850;2022-12-18T16:02:22;27.00;;;15.98;;
32333;SDS011;18810;53.040;8.850;2022-12-18T16:04:49;27.10;;;14.63;;
32333;SDS011;18810;53.040;8.850;2022-12-18T16:07:17;25.23;;;14.90;;
32333;SDS011;18810;53.040;8.850;2022-12-18T16:09:42;27.63;;;15.48;;
32333;SDS011;18810;53.040;8.850;2022-12-18T16:12:15;28.15;;;16.17;;
32333;SDS011;18810;53.040;8.850;2022-12-18T16:14:44;29.73;;;14.63;;
32333;SDS011;18810;53.040;8.850;2022-12-18T16:17:10;26.70;;;14.48;;
32333;SDS011;18810;53.040;8.850;2022-12-18T16:19:38;31.27;;;18.23;;
32333;SDS011;18810;53.040;8.850;2022-12-18T16:22:03;44.60;;;21.75;;
32333;SDS011;18810;53.040;8.850;2022-12-18T16:24:31;45.60;;;23.70;;
32333;SDS011;18810;53.040;8.850;2022-12-18T16:26:58;27.58;;;15.90;;
32333;SDS011;18810;53.040;8.850;2022-12-18T16:29:25;30.55;;;17.45;;
32333;SDS011;18810;53.040;8.850;2022-12-18T16:31:53;30.67;;;16.90;;
32333;SDS011;18810;53.040;8.850;2022-12-18T16:36:51;28.33;;;16.33;;
32333;SDS011;18810;53.040;8.850;2022-12-18T16:39:20;23.65;;;14.48;;
32333;SDS011;18810;53.040;8.850;2022-12-18T16:41:46;25.17;;;15.13;;
32333;SDS011;18810;53.040;8.850;2022-12-18T16:44:12;29.25;;;14.48;;
32333;SDS011;18810;53.040;8.850;2022-12-18T16:46:39;24.08;;;14.55;;